sensor_id;sensor_type;location;lat;lon;timestamp;temperature;humidity
16846;DHT22;8539;53.188;8.696;2023-03-03T00:01:11;1.80;99.90
16846;DHT22;8539;53.188;8.696;2023-03-03T00:03:37;1.80;99.90
16846;DHT22;8539;53.188;8.696;2023-03-03T00:06:04;1.80;99.90
16846;DHT22;8539;53.188;8.696;2023-03-03T00:08:30;1.80;99.90
16846;DHT22;8539;53.188;8.696;2023-03-03T00:10:57;1.70;99.90
16846;DHT22;8539;53.188;8.696;2023-03-03T00:13:27;1.70;99.90
16846;DHT22;8539;53.188;8.696;2023-03-03T00:15:53;1.70;99.90
16846;DHT22;8539;53.188;8.696;2023-03-03T00:18:34;1.70;99.90
16846;DHT22;8539;53.188;8.696;2023-03-03T00:21:18;1.70;99.90
16846;DHT22;8539;53.188;8.696;2023-03-03T00:23:45;1.70;99.90
16846;DHT22;8539;53.188;8.696;2023-03-03T00:26:54;1.70;99.90
16846;DHT22;8539;53.188;8.696;2023-03-03T00:34:42;1.70;99.90
16846;DHT22;8539;53.188;8.696;2023-03-03T00:37:28;1.60;99.90
16846;DHT22;8539;53.188;8.696;2023-03-03T00:40:20;1.70;99.90
16846;DHT22;8539;53.188;8.696;2023-03-03T00:42:49;1.70;99.90
16846;DHT22;8539;53.188;8.696;2023-03-03T00:45:42;1.70;99.90
16846;DHT22;8539;53.188;8.696;2023-03-03T00:50:47;1.70;99.90
16846;DHT22;8539;53.188;8.696;2023-03-03T00:53:15;1.60;99.90
16846;DHT22;8539;53.188;8.696;2023-03-03T00:55:42;1.60;99.90
16846;DHT22;8539;53.188;8.696;2023-03-03T00:58:08;1.60;99.90
16846;DHT22;8539;53.188;8.696;2023-03-03T01:00:35;1.60;99.90
16846;DHT22;8539;53.188;8.696;2023-03-03T01:03:04;1.60;99.90
16846;DHT22;8539;53.188;8.696;2023-03-03T01:05:31;1.70;99.90
16846;DHT22;8539;53.188;8.696;2023-03-03T01:07:57;1.70;99.90
16846;DHT22;8539;53.188;8.696;2023-03-03T01:10:24;1.70;99.90
16846;DHT22;8539;53.188;8.696;2023-03-03T01:12:51;1.70;99.90
16846;DHT22;8539;53.188;8.696;2023-03-03T01:15:17;1.70;99.90
16846;DHT22;8539;53.188;8.696;2023-03-03T01:17:43;1.70;99.90
16846;DHT22;8539;53.188;8.696;2023-03-03T01:20:12;1.70;99.90
16846;DHT22;8539;53.188;8.696;2023-03-03T01:22:38;1.70;99.90
16846;DHT22;8539;53.188;8.696;2023-03-03T01:25:05;1.70;99.90
16846;DHT22;8539;53.188;8.696;2023-03-03T01:27:31;1.70;99.90
16846;DHT22;8539;53.188;8.696;2023-03-03T01:29:57;1.70;99.90
16846;DHT22;8539;53.188;8.696;2023-03-03T01:32:24;1.60;99.90
16846;DHT22;8539;53.188;8.696;2023-03-03T01:34:50;1.70;99.90
16846;DHT22;8539;53.188;8.696;2023-03-03T01:37:16;1.70;99.90
16846;DHT22;8539;53.188;8.696;2023-03-03T01:39:47;1.70;99.90
16846;DHT22;8539;53.188;8.696;2023-03-03T01:42:13;1.70;99.90
16846;DHT22;8539;53.188;8.696;2023-03-03T01:44:40;1.80;99.90
16846;DHT22;8539;53.188;8.696;2023-03-03T01:49:57;1.60;99.90
16846;DHT22;8539;53.188;8.696;2023-03-03T01:52:41;1.60;99.90
16846;DHT22;8539;53.188;8.696;2023-03-03T01:55:13;1.70;99.90
16846;DHT22;8539;53.188;8.696;2023-03-03T01:57:46;1.70;99.90
16846;DHT22;8539;53.188;8.696;2023-03-03T02:00:14;1.60;99.90
16846;DHT22;8539;53.188;8.696;2023-03-03T02:02:41;1.60;99.90
16846;DHT22;8539;53.188;8.696;2023-03-03T02:05:08;1.60;99.90
16846;DHT22;8539;53.188;8.696;2023-03-03T02:07:35;1.60;99.90
16846;DHT22;8539;53.188;8.696;2023-03-03T02:10:13;1.60;99.90
16846;DHT22;8539;53.188;8.696;2023-03-03T02:12:47;1.60;99.90
16846;DHT22;8539;53.188;8.696;2023-03-03T02:17:47;1.60;99.90
16846;DHT22;8539;53.188;8.696;2023-03-03T02:20:24;1.60;99.90
16846;DHT22;8539;53.188;8.696;2023-03-03T02:23:44;1.60;99.90
16846;DHT22;8539;53.188;8.696;2023-03-03T02:26:25;1.60;99.90
16846;DHT22;8539;53.188;8.696;2023-03-03T02:28:52;1.60;99.90
16846;DHT22;8539;53.188;8.696;2023-03-03T02:31:20;1.60;99.90
16846;DHT22;8539;53.188;8.696;2023-03-03T02:33:49;1.60;99.90
16846;DHT22;8539;53.188;8.696;2023-03-03T02:36:25;1.60;99.90
16846;DHT22;8539;53.188;8.696;2023-03-03T02:39:17;1.60;99.90
16846;DHT22;8539;53.188;8.696;2023-03-03T02:44:16;1.60;99.90
16846;DHT22;8539;53.188;8.696;2023-03-03T02:46:45;1.60;99.90
16846;DHT22;8539;53.188;8.696;2023-03-03T02:49:13;1.80;99.90
16846;DHT22;8539;53.188;8.696;2023-03-03T02:51:40;1.70;99.90
16846;DHT22;8539;53.188;8.696;2023-03-03T02:54:07;1.70;99.90
16846;DHT22;8539;53.188;8.696;2023-03-03T02:56:34;1.70;99.90
16846;DHT22;8539;53.188;8.696;2023-03-03T02:59:00;1.70;99.90
16846;DHT22;8539;53.188;8.696;2023-03-03T03:01:26;1.70;99.90
16846;DHT22;8539;53.188;8.696;2023-03-03T03:03:52;1.70;99.90
16846;DHT22;8539;53.188;8.696;2023-03-03T03:06:19;1.70;99.90
16846;DHT22;8539;53.188;8.696;2023-03-03T03:08:45;1.70;99.90
16846;DHT22;8539;53.188;8.696;2023-03-03T03:11:11;1.80;99.90
16846;DHT22;8539;53.188;8.696;2023-03-03T03:13:37;1.70;99.90
16846;DHT22;8539;53.188;8.696;2023-03-03T03:16:03;1.80;99.90
16846;DHT22;8539;53.188;8.696;2023-03-03T03:18:30;1.70;99.90
16846;DHT22;8539;53.188;8.696;2023-03-03T03:20:56;1.70;99.90
16846;DHT22;8539;53.188;8.696;2023-03-03T03:23:22;1.70;99.90
16846;DHT22;8539;53.188;8.696;2023-03-03T03:25:48;1.80;99.90
16846;DHT22;8539;53.188;8.696;2023-03-03T03:28:15;1.70;99.90
16846;DHT22;8539;53.188;8.696;2023-03-03T03:30:43;1.80;99.90
16846;DHT22;8539;53.188;8.696;2023-03-03T03:33:10;1.80;99.90
16846;DHT22;8539;53.188;8.696;2023-03-03T03:35:39;1.80;99.90
16846;DHT22;8539;53.188;8.696;2023-03-03T03:38:10;1.80;99.90
16846;DHT22;8539;53.188;8.696;2023-03-03T03:40:37;1.80;99.90
16846;DHT22;8539;53.188;8.696;2023-03-03T03:43:03;1.80;99.90
16846;DHT22;8539;53.188;8.696;2023-03-03T03:45:29;1.80;99.90
16846;DHT22;8539;53.188;8.696;2023-03-03T03:47:55;1.80;99.90
16846;DHT22;8539;53.188;8.696;2023-03-03T03:50:21;1.80;99.90
16846;DHT22;8539;53.188;8.696;2023-03-03T03:52:48;1.80;99.90
16846;DHT22;8539;53.188;8.696;2023-03-03T03:55:14;1.80;99.90
16846;DHT22;8539;53.188;8.696;2023-03-03T03:57:41;1.80;99.90
16846;DHT22;8539;53.188;8.696;2023-03-03T04:00:08;2.00;99.90
16846;DHT22;8539;53.188;8.696;2023-03-03T04:02:35;1.70;99.90
16846;DHT22;8539;53.188;8.696;2023-03-03T04:05:01;1.70;99.90
16846;DHT22;8539;53.188;8.696;2023-03-03T04:07:28;1.70;99.90
16846;DHT22;8539;53.188;8.696;2023-03-03T04:09:54;1.80;99.90
16846;DHT22;8539;53.188;8.696;2023-03-03T04:12:20;1.70;99.90
16846;DHT22;8539;53.188;8.696;2023-03-03T04:14:46;1.70;99.90
16846;DHT22;8539;53.188;8.696;2023-03-03T04:17:22;1.70;99.90
16846;DHT22;8539;53.188;8.696;2023-03-03T04:19:52;1.60;99.90
16846;DHT22;8539;53.188;8.696;2023-03-03T04:22:18;1.70;99.90
16846;DHT22;8539;53.188;8.696;2023-03-03T04:24:45;1.80;99.90
16846;DHT22;8539;53.188;8.696;2023-03-03T04:27:13;1.60;99.90
16846;DHT22;8539;53.188;8.696;2023-03-03T04:29:40;1.70;99.90
16846;DHT22;8539;53.188;8.696;2023-03-03T04:32:07;1.70;99.90
16846;DHT22;8539;53.188;8.696;2023-03-03T04:34:33;1.60;99.90
16846;DHT22;8539;53.188;8.696;2023-03-03T04:36:59;1.60;99.90
16846;DHT22;8539;53.188;8.696;2023-03-03T04:39:25;1.60;99.90
16846;DHT22;8539;53.188;8.696;2023-03-03T04:41:51;1.60;99.90
16846;DHT22;8539;53.188;8.696;2023-03-03T04:44:17;1.60;99.90
16846;DHT22;8539;53.188;8.696;2023-03-03T04:46:44;1.60;99.90
16846;DHT22;8539;53.188;8.696;2023-03-03T04:49:10;1.60;99.90
16846;DHT22;8539;53.188;8.696;2023-03-03T04:51:36;1.70;99.90
16846;DHT22;8539;53.188;8.696;2023-03-03T04:54:02;1.70;99.90
16846;DHT22;8539;53.188;8.696;2023-03-03T04:56:29;1.70;99.90
16846;DHT22;8539;53.188;8.696;2023-03-03T04:58:56;1.70;99.90
16846;DHT22;8539;53.188;8.696;2023-03-03T05:01:23;1.70;99.90
16846;DHT22;8539;53.188;8.696;2023-03-03T05:03:49;1.80;99.90
16846;DHT22;8539;53.188;8.696;2023-03-03T05:06:15;1.70;99.90
16846;DHT22;8539;53.188;8.696;2023-03-03T05:08:44;1.70;99.90
16846;DHT22;8539;53.188;8.696;2023-03-03T05:11:10;1.70;99.90
16846;DHT22;8539;53.188;8.696;2023-03-03T05:13:36;1.70;99.90
16846;DHT22;8539;53.188;8.696;2023-03-03T05:16:03;1.70;99.90
16846;DHT22;8539;53.188;8.696;2023-03-03T05:18:29;1.80;99.90
16846;DHT22;8539;53.188;8.696;2023-03-03T05:20:55;1.80;99.90
16846;DHT22;8539;53.188;8.696;2023-03-03T05:23:21;1.80;99.90
16846;DHT22;8539;53.188;8.696;2023-03-03T05:25:47;1.90;99.90
16846;DHT22;8539;53.188;8.696;2023-03-03T05:28:14;1.90;99.90
16846;DHT22;8539;53.188;8.696;2023-03-03T05:30:41;1.90;99.90
16846;DHT22;8539;53.188;8.696;2023-03-03T05:33:11;1.90;99.90
16846;DHT22;8539;53.188;8.696;2023-03-03T05:35:37;1.90;99.90
16846;DHT22;8539;53.188;8.696;2023-03-03T05:38:03;1.90;99.90
16846;DHT22;8539;53.188;8.696;2023-03-03T05:40:30;1.90;99.90
16846;DHT22;8539;53.188;8.696;2023-03-03T05:42:56;1.90;99.90
16846;DHT22;8539;53.188;8.696;2023-03-03T05:45:22;1.90;99.90
16846;DHT22;8539;53.188;8.696;2023-03-03T05:47:50;1.90;99.90
16846;DHT22;8539;53.188;8.696;2023-03-03T05:50:18;1.90;99.90
16846;DHT22;8539;53.188;8.696;2023-03-03T05:52:50;2.00;99.90
16846;DHT22;8539;53.188;8.696;2023-03-03T05:55:17;2.00;99.90
16846;DHT22;8539;53.188;8.696;2023-03-03T05:57:44;2.00;99.90
16846;DHT22;8539;53.188;8.696;2023-03-03T06:00:11;2.00;99.90
16846;DHT22;8539;53.188;8.696;2023-03-03T06:02:37;2.00;99.90
16846;DHT22;8539;53.188;8.696;2023-03-03T06:05:03;2.00;99.90
16846;DHT22;8539;53.188;8.696;2023-03-03T06:07:29;2.10;99.90
16846;DHT22;8539;53.188;8.696;2023-03-03T06:09:55;2.10;99.90
16846;DHT22;8539;53.188;8.696;2023-03-03T06:12:21;2.10;99.90
16846;DHT22;8539;53.188;8.696;2023-03-03T06:14:47;2.10;99.90
16846;DHT22;8539;53.188;8.696;2023-03-03T06:17:14;2.40;99.90
16846;DHT22;8539;53.188;8.696;2023-03-03T06:19:40;2.20;99.90
16846;DHT22;8539;53.188;8.696;2023-03-03T06:22:07;2.20;99.90
16846;DHT22;8539;53.188;8.696;2023-03-03T06:24:33;2.20;99.90
16846;DHT22;8539;53.188;8.696;2023-03-03T06:27:00;2.20;99.90
16846;DHT22;8539;53.188;8.696;2023-03-03T06:29:26;2.20;99.90
16846;DHT22;8539;53.188;8.696;2023-03-03T06:31:53;2.20;99.90
16846;DHT22;8539;53.188;8.696;2023-03-03T06:34:20;2.30;99.90
16846;DHT22;8539;53.188;8.696;2023-03-03T06:36:46;2.30;99.90
16846;DHT22;8539;53.188;8.696;2023-03-03T06:39:12;2.30;99.90
16846;DHT22;8539;53.188;8.696;2023-03-03T06:41:38;2.30;99.90
16846;DHT22;8539;53.188;8.696;2023-03-03T06:44:04;2.40;99.90
16846;DHT22;8539;53.188;8.696;2023-03-03T06:46:30;2.40;99.90
16846;DHT22;8539;53.188;8.696;2023-03-03T06:48:56;2.50;99.90
16846;DHT22;8539;53.188;8.696;2023-03-03T06:51:36;2.40;99.90
16846;DHT22;8539;53.188;8.696;2023-03-03T06:54:14;2.40;99.90
16846;DHT22;8539;53.188;8.696;2023-03-03T06:56:41;2.50;99.90
16846;DHT22;8539;53.188;8.696;2023-03-03T06:59:16;2.50;99.90
16846;DHT22;8539;53.188;8.696;2023-03-03T07:01:45;2.60;99.90
16846;DHT22;8539;53.188;8.696;2023-03-03T07:06:44;2.60;99.90
16846;DHT22;8539;53.188;8.696;2023-03-03T07:09:25;2.70;99.90
16846;DHT22;8539;53.188;8.696;2023-03-03T07:12:09;2.70;99.90
16846;DHT22;8539;53.188;8.696;2023-03-03T07:14:47;2.80;99.90
16846;DHT22;8539;53.188;8.696;2023-03-03T07:17:20;2.80;99.90
16846;DHT22;8539;53.188;8.696;2023-03-03T07:19:47;2.80;99.90
16846;DHT22;8539;53.188;8.696;2023-03-03T07:22:16;2.80;99.90
16846;DHT22;8539;53.188;8.696;2023-03-03T07:24:45;2.80;99.90
16846;DHT22;8539;53.188;8.696;2023-03-03T07:27:24;2.90;99.90
16846;DHT22;8539;53.188;8.696;2023-03-03T07:29:52;2.90;99.90
16846;DHT22;8539;53.188;8.696;2023-03-03T07:32:38;3.00;99.90
16846;DHT22;8539;53.188;8.696;2023-03-03T07:35:29;3.00;99.90
16846;DHT22;8539;53.188;8.696;2023-03-03T07:38:00;3.30;99.90
16846;DHT22;8539;53.188;8.696;2023-03-03T07:42:59;4.50;99.90
16846;DHT22;8539;53.188;8.696;2023-03-03T07:45:28;5.50;99.90
16846;DHT22;8539;53.188;8.696;2023-03-03T07:50:25;6.80;99.90
16846;DHT22;8539;53.188;8.696;2023-03-03T07:52:59;6.90;99.90
16846;DHT22;8539;53.188;8.696;2023-03-03T07:55:34;6.60;99.90
16846;DHT22;8539;53.188;8.696;2023-03-03T08:03:42;5.70;99.90
16846;DHT22;8539;53.188;8.696;2023-03-03T08:14:57;5.70;99.90
16846;DHT22;8539;53.188;8.696;2023-03-03T08:17:38;5.70;99.90
16846;DHT22;8539;53.188;8.696;2023-03-03T08:22:54;5.70;99.90
16846;DHT22;8539;53.188;8.696;2023-03-03T08:25:20;5.70;99.90
16846;DHT22;8539;53.188;8.696;2023-03-03T08:27:46;5.70;99.90
16846;DHT22;8539;53.188;8.696;2023-03-03T08:30:12;5.70;99.90
16846;DHT22;8539;53.188;8.696;2023-03-03T08:32:38;5.80;99.90
16846;DHT22;8539;53.188;8.696;2023-03-03T08:35:05;6.00;99.90
16846;DHT22;8539;53.188;8.696;2023-03-03T08:37:31;6.10;99.90
16846;DHT22;8539;53.188;8.696;2023-03-03T08:39:57;6.40;99.90
16846;DHT22;8539;53.188;8.696;2023-03-03T08:42:23;6.80;99.90
16846;DHT22;8539;53.188;8.696;2023-03-03T08:44:49;7.10;99.90
16846;DHT22;8539;53.188;8.696;2023-03-03T08:47:15;7.20;99.90
16846;DHT22;8539;53.188;8.696;2023-03-03T08:49:41;7.30;99.90
16846;DHT22;8539;53.188;8.696;2023-03-03T08:52:07;7.20;99.90
16846;DHT22;8539;53.188;8.696;2023-03-03T08:54:33;7.20;99.90
16846;DHT22;8539;53.188;8.696;2023-03-03T08:56:59;7.10;99.90
16846;DHT22;8539;53.188;8.696;2023-03-03T08:59:25;7.00;99.90
16846;DHT22;8539;53.188;8.696;2023-03-03T09:01:51;7.10;99.90
16846;DHT22;8539;53.188;8.696;2023-03-03T09:04:17;6.80;99.90
16846;DHT22;8539;53.188;8.696;2023-03-03T09:06:43;6.80;99.90
16846;DHT22;8539;53.188;8.696;2023-03-03T09:09:09;6.80;99.90
16846;DHT22;8539;53.188;8.696;2023-03-03T09:11:35;6.80;99.90
16846;DHT22;8539;53.188;8.696;2023-03-03T09:14:10;6.80;99.90
16846;DHT22;8539;53.188;8.696;2023-03-03T09:16:39;6.80;99.90
16846;DHT22;8539;53.188;8.696;2023-03-03T09:19:28;6.70;99.90
16846;DHT22;8539;53.188;8.696;2023-03-03T09:22:00;6.70;99.90
16846;DHT22;8539;53.188;8.696;2023-03-03T09:24:29;6.80;99.90
16846;DHT22;8539;53.188;8.696;2023-03-03T09:26:56;6.80;99.90
16846;DHT22;8539;53.188;8.696;2023-03-03T09:29:27;6.90;99.90
16846;DHT22;8539;53.188;8.696;2023-03-03T09:31:55;6.80;99.90
16846;DHT22;8539;53.188;8.696;2023-03-03T09:39:40;7.00;99.90
16846;DHT22;8539;53.188;8.696;2023-03-03T10:01:34;7.30;99.90
16846;DHT22;8539;53.188;8.696;2023-03-03T10:07:26;7.30;99.90
16846;DHT22;8539;53.188;8.696;2023-03-03T10:12:51;7.50;99.90
16846;DHT22;8539;53.188;8.696;2023-03-03T10:39:46;9.70;99.90
16846;DHT22;8539;53.188;8.696;2023-03-03T10:42:28;9.90;99.90
16846;DHT22;8539;53.188;8.696;2023-03-03T10:53:21;11.10;99.90
16846;DHT22;8539;53.188;8.696;2023-03-03T10:56:25;11.30;99.90
16846;DHT22;8539;53.188;8.696;2023-03-03T11:07:30;10.90;99.90
16846;DHT22;8539;53.188;8.696;2023-03-03T11:29:48;8.80;99.90
16846;DHT22;8539;53.188;8.696;2023-03-03T11:32:37;8.80;99.90
16846;DHT22;8539;53.188;8.696;2023-03-03T11:35:22;8.80;99.90
16846;DHT22;8539;53.188;8.696;2023-03-03T11:38:17;8.70;99.90
16846;DHT22;8539;53.188;8.696;2023-03-03T11:43:46;8.40;99.90
16846;DHT22;8539;53.188;8.696;2023-03-03T11:46:18;8.30;99.90
16846;DHT22;8539;53.188;8.696;2023-03-03T11:49:03;8.20;99.90
16846;DHT22;8539;53.188;8.696;2023-03-03T11:59:49;8.00;99.90
16846;DHT22;8539;53.188;8.696;2023-03-03T12:02:47;8.00;99.90
16846;DHT22;8539;53.188;8.696;2023-03-03T12:05:23;8.00;99.90
16846;DHT22;8539;53.188;8.696;2023-03-03T12:24:43;7.80;99.90
16846;DHT22;8539;53.188;8.696;2023-03-03T12:30:12;7.90;99.90
16846;DHT22;8539;53.188;8.696;2023-03-03T12:41:21;7.90;99.90
16846;DHT22;8539;53.188;8.696;2023-03-03T12:49:08;7.70;99.90
16846;DHT22;8539;53.188;8.696;2023-03-03T12:54:34;7.60;99.90
16846;DHT22;8539;53.188;8.696;2023-03-03T12:57:38;7.60;99.90
16846;DHT22;8539;53.188;8.696;2023-03-03T13:06:00;7.50;99.90
16846;DHT22;8539;53.188;8.696;2023-03-03T13:10:49;7.60;99.90
16846;DHT22;8539;53.188;8.696;2023-03-03T13:16:09;7.50;99.90
16846;DHT22;8539;53.188;8.696;2023-03-03T13:27:17;7.60;99.90
16846;DHT22;8539;53.188;8.696;2023-03-03T13:30:19;7.70;99.90
16846;DHT22;8539;53.188;8.696;2023-03-03T13:32:58;7.70;99.90
16846;DHT22;8539;53.188;8.696;2023-03-03T13:38:03;7.80;99.90
16846;DHT22;8539;53.188;8.696;2023-03-03T13:40:42;7.80;99.90
16846;DHT22;8539;53.188;8.696;2023-03-03T13:43:18;7.70;99.90
16846;DHT22;8539;53.188;8.696;2023-03-03T13:46:10;7.70;99.90
16846;DHT22;8539;53.188;8.696;2023-03-03T13:49:04;7.70;99.90
16846;DHT22;8539;53.188;8.696;2023-03-03T14:03:14;8.00;99.90
16846;DHT22;8539;53.188;8.696;2023-03-03T14:05:51;8.00;99.90
16846;DHT22;8539;53.188;8.696;2023-03-03T14:08:46;7.80;99.90
16846;DHT22;8539;53.188;8.696;2023-03-03T14:17:01;7.50;99.90
16846;DHT22;8539;53.188;8.696;2023-03-03T14:19:34;7.50;99.90
16846;DHT22;8539;53.188;8.696;2023-03-03T14:22:11;7.50;99.90
16846;DHT22;8539;53.188;8.696;2023-03-03T14:27:24;7.50;99.90
16846;DHT22;8539;53.188;8.696;2023-03-03T14:29:50;7.60;99.90
16846;DHT22;8539;53.188;8.696;2023-03-03T14:32:23;7.50;99.90
16846;DHT22;8539;53.188;8.696;2023-03-03T14:35:00;7.50;99.90
16846;DHT22;8539;53.188;8.696;2023-03-03T14:37:43;7.40;99.90
16846;DHT22;8539;53.188;8.696;2023-03-03T14:40:22;7.40;99.90
16846;DHT22;8539;53.188;8.696;2023-03-03T14:42:58;7.30;99.90
16846;DHT22;8539;53.188;8.696;2023-03-03T14:45:34;7.30;99.90
16846;DHT22;8539;53.188;8.696;2023-03-03T14:48:17;7.30;99.90
16846;DHT22;8539;53.188;8.696;2023-03-03T14:50:59;7.30;99.90
16846;DHT22;8539;53.188;8.696;2023-03-03T14:53:37;7.30;99.90
16846;DHT22;8539;53.188;8.696;2023-03-03T14:56:36;7.30;99.90
16846;DHT22;8539;53.188;8.696;2023-03-03T14:59:22;7.30;99.90
16846;DHT22;8539;53.188;8.696;2023-03-03T15:04:38;7.30;99.90
16846;DHT22;8539;53.188;8.696;2023-03-03T15:07:34;7.30;99.90
16846;DHT22;8539;53.188;8.696;2023-03-03T15:10:01;7.20;99.90
16846;DHT22;8539;53.188;8.696;2023-03-03T15:12:38;7.20;99.90
16846;DHT22;8539;53.188;8.696;2023-03-03T15:17:43;7.20;99.90
16846;DHT22;8539;53.188;8.696;2023-03-03T15:22:50;7.10;99.90
16846;DHT22;8539;53.188;8.696;2023-03-03T15:25:30;7.10;99.90
16846;DHT22;8539;53.188;8.696;2023-03-03T15:36:06;6.90;99.90
16846;DHT22;8539;53.188;8.696;2023-03-03T15:39:02;6.90;99.90
16846;DHT22;8539;53.188;8.696;2023-03-03T15:47:12;6.80;99.90
16846;DHT22;8539;53.188;8.696;2023-03-03T15:49:56;6.80;99.90
16846;DHT22;8539;53.188;8.696;2023-03-03T16:03:15;6.70;99.90
16846;DHT22;8539;53.188;8.696;2023-03-03T16:06:00;6.70;99.90
16846;DHT22;8539;53.188;8.696;2023-03-03T16:14:25;6.70;99.90
16846;DHT22;8539;53.188;8.696;2023-03-03T16:20:01;6.60;99.90
16846;DHT22;8539;53.188;8.696;2023-03-03T16:31:06;6.50;99.90
16846;DHT22;8539;53.188;8.696;2023-03-03T16:45:19;6.40;99.90
16846;DHT22;8539;53.188;8.696;2023-03-03T16:50:53;6.30;99.90
16846;DHT22;8539;53.188;8.696;2023-03-03T16:56:09;6.20;99.90
16846;DHT22;8539;53.188;8.696;2023-03-03T17:04:08;6.10;99.90
16846;DHT22;8539;53.188;8.696;2023-03-03T17:06:49;6.10;99.90
16846;DHT22;8539;53.188;8.696;2023-03-03T17:09:31;6.20;99.90
16846;DHT22;8539;53.188;8.696;2023-03-03T17:12:07;6.00;99.90
16846;DHT22;8539;53.188;8.696;2023-03-03T17:26:13;5.90;99.90
16846;DHT22;8539;53.188;8.696;2023-03-03T17:47:25;5.60;99.90
16846;DHT22;8539;53.188;8.696;2023-03-03T17:50:01;5.60;99.90
16846;DHT22;8539;53.188;8.696;2023-03-03T17:55:30;5.60;99.90
16846;DHT22;8539;53.188;8.696;2023-03-03T18:01:13;5.60;99.90
16846;DHT22;8539;53.188;8.696;2023-03-03T18:03:57;5.60;99.90
16846;DHT22;8539;53.188;8.696;2023-03-03T18:15:43;5.50;99.90
16846;DHT22;8539;53.188;8.696;2023-03-03T18:23:42;5.40;99.90
16846;DHT22;8539;53.188;8.696;2023-03-03T18:26:32;5.50;99.90
16846;DHT22;8539;53.188;8.696;2023-03-03T18:29:12;5.40;99.90
16846;DHT22;8539;53.188;8.696;2023-03-03T18:32:31;5.50;99.90
16846;DHT22;8539;53.188;8.696;2023-03-03T18:34:40;5.50;99.90
16846;DHT22;8539;53.188;8.696;2023-03-03T18:37:10;5.40;99.90
16846;DHT22;8539;53.188;8.696;2023-03-03T18:42:39;5.40;99.90
16846;DHT22;8539;53.188;8.696;2023-03-03T18:48:13;5.40;99.90
16846;DHT22;8539;53.188;8.696;2023-03-03T18:55:46;5.50;99.90
16846;DHT22;8539;53.188;8.696;2023-03-03T19:00:51;5.40;99.90
16846;DHT22;8539;53.188;8.696;2023-03-03T19:03:31;5.40;99.90
16846;DHT22;8539;53.188;8.696;2023-03-03T19:05:59;5.40;99.90
16846;DHT22;8539;53.188;8.696;2023-03-03T19:08:42;5.40;99.90
16846;DHT22;8539;53.188;8.696;2023-03-03T19:11:34;5.30;99.90
16846;DHT22;8539;53.188;8.696;2023-03-03T19:16:51;5.30;99.90
16846;DHT22;8539;53.188;8.696;2023-03-03T19:19:23;5.30;99.90
16846;DHT22;8539;53.188;8.696;2023-03-03T19:24:39;5.20;99.90
16846;DHT22;8539;53.188;8.696;2023-03-03T19:27:26;5.20;99.90
16846;DHT22;8539;53.188;8.696;2023-03-03T19:30:12;5.30;99.90
16846;DHT22;8539;53.188;8.696;2023-03-03T19:33:06;5.20;99.90
16846;DHT22;8539;53.188;8.696;2023-03-03T19:35:47;5.30;99.90
16846;DHT22;8539;53.188;8.696;2023-03-03T19:44:32;5.20;99.90
16846;DHT22;8539;53.188;8.696;2023-03-03T19:47:21;5.20;99.90
16846;DHT22;8539;53.188;8.696;2023-03-03T19:49:56;5.10;99.90
16846;DHT22;8539;53.188;8.696;2023-03-03T20:00:55;5.20;99.90
16846;DHT22;8539;53.188;8.696;2023-03-03T20:16:53;5.10;99.90
16846;DHT22;8539;53.188;8.696;2023-03-03T20:30:24;5.10;99.90
16846;DHT22;8539;53.188;8.696;2023-03-03T20:35:53;5.10;99.90
16846;DHT22;8539;53.188;8.696;2023-03-03T20:47:27;5.10;99.90
16846;DHT22;8539;53.188;8.696;2023-03-03T20:53:07;5.10;99.90
16846;DHT22;8539;53.188;8.696;2023-03-03T20:58:22;5.20;99.90
16846;DHT22;8539;53.188;8.696;2023-03-03T21:03:38;5.20;99.90
16846;DHT22;8539;53.188;8.696;2023-03-03T21:06:07;5.20;99.90
16846;DHT22;8539;53.188;8.696;2023-03-03T21:08:54;5.20;99.90
16846;DHT22;8539;53.188;8.696;2023-03-03T21:13:56;5.30;99.90
16846;DHT22;8539;53.188;8.696;2023-03-03T21:19:08;5.20;99.90
16846;DHT22;8539;53.188;8.696;2023-03-03T21:24:03;5.20;99.90
16846;DHT22;8539;53.188;8.696;2023-03-03T21:26:54;5.20;99.90
16846;DHT22;8539;53.188;8.696;2023-03-03T21:29:41;5.20;99.90
16846;DHT22;8539;53.188;8.696;2023-03-03T21:32:08;5.20;99.90
16846;DHT22;8539;53.188;8.696;2023-03-03T21:34:41;5.20;99.90
16846;DHT22;8539;53.188;8.696;2023-03-03T21:37:09;5.20;99.90
16846;DHT22;8539;53.188;8.696;2023-03-03T21:42:06;5.30;99.90
16846;DHT22;8539;53.188;8.696;2023-03-03T21:44:46;5.20;99.90
16846;DHT22;8539;53.188;8.696;2023-03-03T21:47:22;5.20;99.90
16846;DHT22;8539;53.188;8.696;2023-03-03T21:49:50;5.30;99.90
16846;DHT22;8539;53.188;8.696;2023-03-03T21:52:18;5.20;99.90
16846;DHT22;8539;53.188;8.696;2023-03-03T21:54:46;5.50;99.90
16846;DHT22;8539;53.188;8.696;2023-03-03T21:57:12;5.20;99.90
16846;DHT22;8539;53.188;8.696;2023-03-03T21:59:39;5.20;99.90
16846;DHT22;8539;53.188;8.696;2023-03-03T22:02:06;5.60;99.90
16846;DHT22;8539;53.188;8.696;2023-03-03T22:04:32;5.20;99.90
16846;DHT22;8539;53.188;8.696;2023-03-03T22:07:00;5.20;99.90
16846;DHT22;8539;53.188;8.696;2023-03-03T22:09:26;5.20;99.90
16846;DHT22;8539;53.188;8.696;2023-03-03T22:11:52;5.10;99.90
16846;DHT22;8539;53.188;8.696;2023-03-03T22:14:18;5.10;99.90
16846;DHT22;8539;53.188;8.696;2023-03-03T22:16:44;5.20;99.90
16846;DHT22;8539;53.188;8.696;2023-03-03T22:19:11;5.20;99.90
16846;DHT22;8539;53.188;8.696;2023-03-03T22:21:37;5.20;99.90
16846;DHT22;8539;53.188;8.696;2023-03-03T22:24:05;5.10;99.90
16846;DHT22;8539;53.188;8.696;2023-03-03T22:26:31;5.10;99.90
16846;DHT22;8539;53.188;8.696;2023-03-03T22:28:57;5.10;99.90
16846;DHT22;8539;53.188;8.696;2023-03-03T22:31:23;5.10;99.90
16846;DHT22;8539;53.188;8.696;2023-03-03T22:33:50;5.30;99.90
16846;DHT22;8539;53.188;8.696;2023-03-03T22:36:16;5.10;99.90
16846;DHT22;8539;53.188;8.696;2023-03-03T22:38:44;5.20;99.90
16846;DHT22;8539;53.188;8.696;2023-03-03T22:41:11;5.20;99.90
16846;DHT22;8539;53.188;8.696;2023-03-03T22:43:37;5.10;99.90
16846;DHT22;8539;53.188;8.696;2023-03-03T22:46:04;5.20;99.90
16846;DHT22;8539;53.188;8.696;2023-03-03T22:48:30;5.10;99.90
16846;DHT22;8539;53.188;8.696;2023-03-03T22:50:56;5.10;99.90
16846;DHT22;8539;53.188;8.696;2023-03-03T22:53:23;5.10;99.90
16846;DHT22;8539;53.188;8.696;2023-03-03T22:55:49;5.10;99.90
16846;DHT22;8539;53.188;8.696;2023-03-03T22:58:16;5.20;99.90
16846;DHT22;8539;53.188;8.696;2023-03-03T23:00:47;5.10;99.90
16846;DHT22;8539;53.188;8.696;2023-03-03T23:03:13;5.20;99.90
16846;DHT22;8539;53.188;8.696;2023-03-03T23:05:40;5.10;99.90
16846;DHT22;8539;53.188;8.696;2023-03-03T23:08:10;5.20;99.90
16846;DHT22;8539;53.188;8.696;2023-03-03T23:10:37;5.10;99.90
16846;DHT22;8539;53.188;8.696;2023-03-03T23:13:03;5.20;99.90
16846;DHT22;8539;53.188;8.696;2023-03-03T23:15:30;5.10;99.90
16846;DHT22;8539;53.188;8.696;2023-03-03T23:17:57;5.10;99.90
16846;DHT22;8539;53.188;8.696;2023-03-03T23:20:30;5.10;99.90
16846;DHT22;8539;53.188;8.696;2023-03-03T23:22:57;5.10;99.90
16846;DHT22;8539;53.188;8.696;2023-03-03T23:25:23;5.20;99.90
16846;DHT22;8539;53.188;8.696;2023-03-03T23:27:51;5.20;99.90
16846;DHT22;8539;53.188;8.696;2023-03-03T23:30:18;5.20;99.90
16846;DHT22;8539;53.188;8.696;2023-03-03T23:32:45;5.20;99.90
16846;DHT22;8539;53.188;8.696;2023-03-03T23:35:12;5.20;99.90
16846;DHT22;8539;53.188;8.696;2023-03-03T23:37:39;5.20;99.90
16846;DHT22;8539;53.188;8.696;2023-03-03T23:40:06;5.20;99.90
16846;DHT22;8539;53.188;8.696;2023-03-03T23:42:32;5.20;99.90
16846;DHT22;8539;53.188;8.696;2023-03-03T23:44:58;5.20;99.90